sensor_id;sensor_type;location;lat;lon;timestamp;pressure;altitude;pressure_sealevel;temperature;humidity
46756;BME280;32506;52.826;-1.192;2023-04-25T00:01:28;101019.88;;;4.44;44.05
46756;BME280;32506;52.826;-1.192;2023-04-25T00:03:54;101016.06;;;4.38;44.03
46756;BME280;32506;52.826;-1.192;2023-04-25T00:06:19;101019.00;;;4.35;44.09
46756;BME280;32506;52.826;-1.192;2023-04-25T00:08:45;101026.63;;;4.30;44.18
46756;BME280;32506;52.826;-1.192;2023-04-25T00:11:10;101031.25;;;4.28;43.91
46756;BME280;32506;52.826;-1.192;2023-04-25T00:13:35;101036.19;;;4.23;43.85
46756;BME280;32506;52.826;-1.192;2023-04-25T00:16:01;101037.66;;;4.17;43.85
46756;BME280;32506;52.826;-1.192;2023-04-25T00:18:27;101044.09;;;4.14;44.20
46756;BME280;32506;52.826;-1.192;2023-04-25T00:20:54;101041.94;;;4.10;43.95
46756;BME280;32506;52.826;-1.192;2023-04-25T00:23:20;101036.28;;;4.05;43.93
46756;BME280;32506;52.826;-1.192;2023-04-25T00:25:49;101036.59;;;4.01;43.75
46756;BME280;32506;52.826;-1.192;2023-04-25T00:28:15;101037.75;;;3.99;43.83
46756;BME280;32506;52.826;-1.192;2023-04-25T00:30:42;101034.75;;;3.94;44.11
46756;BME280;32506;52.826;-1.192;2023-04-25T00:33:07;101026.28;;;3.90;43.91
46756;BME280;32506;52.826;-1.192;2023-04-25T00:35:34;101029.44;;;3.85;43.83
46756;BME280;32506;52.826;-1.192;2023-04-25T00:38:00;101034.03;;;3.83;43.81
46756;BME280;32506;52.826;-1.192;2023-04-25T00:40:26;101031.88;;;3.79;43.97
46756;BME280;32506;52.826;-1.192;2023-04-25T00:42:52;101029.69;;;3.74;43.73
46756;BME280;32506;52.826;-1.192;2023-04-25T00:45:18;101035.28;;;3.71;43.65
46756;BME280;32506;52.826;-1.192;2023-04-25T00:47:44;101032.97;;;3.68;43.75
46756;BME280;32506;52.826;-1.192;2023-04-25T00:50:11;101029.09;;;3.62;43.65
46756;BME280;32506;52.826;-1.192;2023-04-25T00:52:43;101024.97;;;3.60;43.59
46756;BME280;32506;52.826;-1.192;2023-04-25T00:55:10;101028.91;;;3.56;43.57
46756;BME280;32506;52.826;-1.192;2023-04-25T00:57:36;101020.59;;;3.50;43.50
46756;BME280;32506;52.826;-1.192;2023-04-25T01:00:03;101027.88;;;3.48;43.64
46756;BME280;32506;52.826;-1.192;2023-04-25T01:02:31;101023.88;;;3.44;43.48
46756;BME280;32506;52.826;-1.192;2023-04-25T01:04:57;101034.63;;;3.43;43.82
46756;BME280;32506;52.826;-1.192;2023-04-25T01:07:22;101037.69;;;3.38;43.77
46756;BME280;32506;52.826;-1.192;2023-04-25T01:09:48;101034.56;;;3.34;44.00
46756;BME280;32506;52.826;-1.192;2023-04-25T01:12:13;101027.94;;;3.30;43.79
46756;BME280;32506;52.826;-1.192;2023-04-25T01:14:39;101032.69;;;3.27;43.85
46756;BME280;32506;52.826;-1.192;2023-04-25T01:17:05;101033.97;;;3.23;43.89
46756;BME280;32506;52.826;-1.192;2023-04-25T01:19:32;101035.09;;;3.20;43.75
46756;BME280;32506;52.826;-1.192;2023-04-25T01:21:58;101033.59;;;3.17;43.71
46756;BME280;32506;52.826;-1.192;2023-04-25T01:24:24;101032.25;;;3.13;44.21
46756;BME280;32506;52.826;-1.192;2023-04-25T01:26:49;101036.84;;;3.11;44.17
46756;BME280;32506;52.826;-1.192;2023-04-25T01:29:19;101034.50;;;3.08;44.17
46756;BME280;32506;52.826;-1.192;2023-04-25T01:31:45;101037.47;;;3.05;43.85
46756;BME280;32506;52.826;-1.192;2023-04-25T01:34:11;101046.53;;;3.02;43.91
46756;BME280;32506;52.826;-1.192;2023-04-25T01:36:37;101046.81;;;2.99;44.25
46756;BME280;32506;52.826;-1.192;2023-04-25T01:39:02;101046.13;;;2.97;44.59
46756;BME280;32506;52.826;-1.192;2023-04-25T01:41:28;101043.81;;;2.94;44.18
46756;BME280;32506;52.826;-1.192;2023-04-25T01:43:54;101046.56;;;2.93;44.95
46756;BME280;32506;52.826;-1.192;2023-04-25T01:46:20;101046.72;;;2.91;44.54
46756;BME280;32506;52.826;-1.192;2023-04-25T01:48:45;101043.59;;;2.88;44.50
46756;BME280;32506;52.826;-1.192;2023-04-25T01:51:11;101050.00;;;2.85;44.51
46756;BME280;32506;52.826;-1.192;2023-04-25T01:53:38;101053.59;;;2.84;44.56
46756;BME280;32506;52.826;-1.192;2023-04-25T01:56:04;101048.63;;;2.81;44.66
46756;BME280;32506;52.826;-1.192;2023-04-25T01:58:42;101050.44;;;2.80;44.72
46756;BME280;32506;52.826;-1.192;2023-04-25T02:01:07;101056.00;;;2.77;44.90
46756;BME280;32506;52.826;-1.192;2023-04-25T02:03:34;101055.31;;;2.75;44.87
46756;BME280;32506;52.826;-1.192;2023-04-25T02:05:59;101057.28;;;2.73;44.67
46756;BME280;32506;52.826;-1.192;2023-04-25T02:08:25;101053.97;;;2.71;45.12
46756;BME280;32506;52.826;-1.192;2023-04-25T02:10:52;101052.44;;;2.68;44.69
46756;BME280;32506;52.826;-1.192;2023-04-25T02:13:17;101057.88;;;2.67;45.25
46756;BME280;32506;52.826;-1.192;2023-04-25T02:15:43;101050.13;;;2.65;45.39
46756;BME280;32506;52.826;-1.192;2023-04-25T02:18:08;101051.25;;;2.63;45.42
46756;BME280;32506;52.826;-1.192;2023-04-25T02:20:35;101057.50;;;2.62;45.03
46756;BME280;32506;52.826;-1.192;2023-04-25T02:23:01;101057.66;;;2.60;45.48
46756;BME280;32506;52.826;-1.192;2023-04-25T02:25:27;101056.13;;;2.58;45.42
46756;BME280;32506;52.826;-1.192;2023-04-25T02:27:53;101051.84;;;2.57;45.61
46756;BME280;32506;52.826;-1.192;2023-04-25T02:30:19;101057.13;;;2.57;45.95
46756;BME280;32506;52.826;-1.192;2023-04-25T02:32:44;101056.44;;;2.55;45.67
46756;BME280;32506;52.826;-1.192;2023-04-25T02:35:10;101054.94;;;2.52;45.79
46756;BME280;32506;52.826;-1.192;2023-04-25T02:37:38;101058.53;;;2.51;46.30
46756;BME280;32506;52.826;-1.192;2023-04-25T02:40:04;101052.44;;;2.50;46.42
46756;BME280;32506;52.826;-1.192;2023-04-25T02:42:30;101049.94;;;2.49;46.09
46756;BME280;32506;52.826;-1.192;2023-04-25T02:44:56;101050.09;;;2.47;46.00
46756;BME280;32506;52.826;-1.192;2023-04-25T02:47:21;101045.94;;;2.45;46.04
46756;BME280;32506;52.826;-1.192;2023-04-25T02:49:47;101046.09;;;2.43;46.17
46756;BME280;32506;52.826;-1.192;2023-04-25T02:52:13;101049.72;;;2.42;46.49
46756;BME280;32506;52.826;-1.192;2023-04-25T02:54:39;101063.06;;;2.41;46.38
46756;BME280;32506;52.826;-1.192;2023-04-25T02:57:05;101065.00;;;2.39;45.91
46756;BME280;32506;52.826;-1.192;2023-04-25T02:59:31;101066.81;;;2.38;45.67
46756;BME280;32506;52.826;-1.192;2023-04-25T03:01:56;101077.53;;;2.37;46.04
46756;BME280;32506;52.826;-1.192;2023-04-25T03:04:22;101080.44;;;2.33;46.24
46756;BME280;32506;52.826;-1.192;2023-04-25T03:06:51;101081.44;;;2.32;46.03
46756;BME280;32506;52.826;-1.192;2023-04-25T03:09:17;101089.47;;;2.31;45.60
46756;BME280;32506;52.826;-1.192;2023-04-25T03:11:44;101089.63;;;2.29;45.74
46756;BME280;32506;52.826;-1.192;2023-04-25T03:14:10;101082.00;;;2.26;45.62
46756;BME280;32506;52.826;-1.192;2023-04-25T03:16:36;101084.78;;;2.25;45.69
46756;BME280;32506;52.826;-1.192;2023-04-25T03:19:02;101082.31;;;2.23;45.49
46756;BME280;32506;52.826;-1.192;2023-04-25T03:21:28;101087.72;;;2.22;45.92
46756;BME280;32506;52.826;-1.192;2023-04-25T03:23:53;101095.91;;;2.18;46.03
46756;BME280;32506;52.826;-1.192;2023-04-25T03:26:19;101100.50;;;2.16;45.81
46756;BME280;32506;52.826;-1.192;2023-04-25T03:28:44;101099.00;;;2.14;45.52
46756;BME280;32506;52.826;-1.192;2023-04-25T03:31:10;101092.88;;;2.13;45.26
46756;BME280;32506;52.826;-1.192;2023-04-25T03:33:35;101094.84;;;2.11;45.77
46756;BME280;32506;52.826;-1.192;2023-04-25T03:36:01;101096.78;;;2.09;45.68
46756;BME280;32506;52.826;-1.192;2023-04-25T03:38:26;101098.75;;;2.07;45.56
46756;BME280;32506;52.826;-1.192;2023-04-25T03:40:52;101097.22;;;2.05;45.10
46756;BME280;32506;52.826;-1.192;2023-04-25T03:43:18;101097.38;;;2.03;45.52
46756;BME280;32506;52.826;-1.192;2023-04-25T03:45:43;101108.06;;;2.01;45.55
46756;BME280;32506;52.826;-1.192;2023-04-25T03:48:09;101105.69;;;1.98;45.78
46756;BME280;32506;52.826;-1.192;2023-04-25T03:50:34;101114.72;;;1.96;45.74
46756;BME280;32506;52.826;-1.192;2023-04-25T03:53:00;101108.78;;;1.94;45.77
46756;BME280;32506;52.826;-1.192;2023-04-25T03:55:25;101103.66;;;1.92;45.18
46756;BME280;32506;52.826;-1.192;2023-04-25T03:57:51;101107.41;;;1.90;45.49
46756;BME280;32506;52.826;-1.192;2023-04-25T04:00:16;101108.38;;;1.89;45.58
46756;BME280;32506;52.826;-1.192;2023-04-25T04:02:42;101113.78;;;1.87;44.85
46756;BME280;32506;52.826;-1.192;2023-04-25T04:05:07;101107.13;;;1.83;44.82
46756;BME280;32506;52.826;-1.192;2023-04-25T04:07:33;101109.06;;;1.81;45.19
46756;BME280;32506;52.826;-1.192;2023-04-25T04:10:00;101114.63;;;1.78;44.91
46756;BME280;32506;52.826;-1.192;2023-04-25T04:12:26;101115.59;;;1.77;45.01
46756;BME280;32506;52.826;-1.192;2023-04-25T04:14:51;101116.88;;;1.73;44.83
46756;BME280;32506;52.826;-1.192;2023-04-25T04:17:17;101130.19;;;1.71;45.21
46756;BME280;32506;52.826;-1.192;2023-04-25T04:19:42;101138.38;;;1.68;44.68
46756;BME280;32506;52.826;-1.192;2023-04-25T04:22:07;101142.94;;;1.66;45.25
46756;BME280;32506;52.826;-1.192;2023-04-25T04:24:33;101147.66;;;1.62;44.82
46756;BME280;32506;52.826;-1.192;2023-04-25T04:26:58;101146.13;;;1.60;44.59
46756;BME280;32506;52.826;-1.192;2023-04-25T04:29:24;101142.13;;;1.56;44.54
46756;BME280;32506;52.826;-1.192;2023-04-25T04:31:50;101137.97;;;1.53;44.50
46756;BME280;32506;52.826;-1.192;2023-04-25T04:34:17;101148.78;;;1.50;44.47
46756;BME280;32506;52.826;-1.192;2023-04-25T04:36:44;101146.44;;;1.47;45.11
46756;BME280;32506;52.826;-1.192;2023-04-25T04:39:12;101147.53;;;1.44;44.46
46756;BME280;32506;52.826;-1.192;2023-04-25T04:41:37;101146.00;;;1.42;45.04
46756;BME280;32506;52.826;-1.192;2023-04-25T04:44:03;101138.25;;;1.40;44.57
46756;BME280;32506;52.826;-1.192;2023-04-25T04:46:29;101141.28;;;1.36;44.57
46756;BME280;32506;52.826;-1.192;2023-04-25T04:48:55;101142.53;;;1.31;44.76
46756;BME280;32506;52.826;-1.192;2023-04-25T04:51:21;101151.44;;;1.30;44.74
46756;BME280;32506;52.826;-1.192;2023-04-25T04:53:47;101144.78;;;1.26;44.42
46756;BME280;32506;52.826;-1.192;2023-04-25T04:56:12;101147.53;;;1.25;44.82
46756;BME280;32506;52.826;-1.192;2023-04-25T04:58:38;101148.63;;;1.22;44.70
46756;BME280;32506;52.826;-1.192;2023-04-25T05:01:03;101148.78;;;1.21;44.77
46756;BME280;32506;52.826;-1.192;2023-04-25T05:03:29;101140.19;;;1.19;45.14
46756;BME280;32506;52.826;-1.192;2023-04-25T05:05:54;101149.06;;;1.17;45.29
46756;BME280;32506;52.826;-1.192;2023-04-25T05:08:20;101150.03;;;1.16;45.40
46756;BME280;32506;52.826;-1.192;2023-04-25T05:10:45;101144.91;;;1.15;45.78
46756;BME280;32506;52.826;-1.192;2023-04-25T05:13:11;101137.97;;;1.14;45.92
46756;BME280;32506;52.826;-1.192;2023-04-25T05:15:37;101146.72;;;1.14;45.99
46756;BME280;32506;52.826;-1.192;2023-04-25T05:18:02;101154.59;;;1.14;46.43
46756;BME280;32506;52.826;-1.192;2023-04-25T05:20:28;101152.78;;;1.15;46.31
46756;BME280;32506;52.826;-1.192;2023-04-25T05:22:53;101151.81;;;1.16;46.24
46756;BME280;32506;52.826;-1.192;2023-04-25T05:25:19;101162.22;;;1.17;46.10
46756;BME280;32506;52.826;-1.192;2023-04-25T05:27:44;101157.78;;;1.18;46.69
46756;BME280;32506;52.826;-1.192;2023-04-25T05:30:10;101162.94;;;1.20;46.60
46756;BME280;32506;52.826;-1.192;2023-04-25T05:32:35;101166.38;;;1.20;46.75
46756;BME280;32506;52.826;-1.192;2023-04-25T05:35:01;101165.28;;;1.23;46.98
46756;BME280;32506;52.826;-1.192;2023-04-25T05:37:27;101162.50;;;1.24;46.98
46756;BME280;32506;52.826;-1.192;2023-04-25T05:39:55;101165.00;;;1.26;46.73
46756;BME280;32506;52.826;-1.192;2023-04-25T05:42:21;101171.78;;;1.28;46.50
46756;BME280;32506;52.826;-1.192;2023-04-25T05:44:46;101175.13;;;1.30;46.96
46756;BME280;32506;52.826;-1.192;2023-04-25T05:47:12;101172.22;;;1.33;47.11
46756;BME280;32506;52.826;-1.192;2023-04-25T05:49:37;101174.72;;;1.35;47.05
46756;BME280;32506;52.826;-1.192;2023-04-25T05:52:03;101176.25;;;1.38;46.69
46756;BME280;32506;52.826;-1.192;2023-04-25T05:54:28;101178.59;;;1.41;46.55
46756;BME280;32506;52.826;-1.192;2023-04-25T05:56:53;101182.75;;;1.43;46.53
46756;BME280;32506;52.826;-1.192;2023-04-25T05:59:19;101184.28;;;1.46;46.66
46756;BME280;32506;52.826;-1.192;2023-04-25T06:01:45;101183.19;;;1.48;47.07
46756;BME280;32506;52.826;-1.192;2023-04-25T06:04:11;101185.53;;;1.51;46.43
46756;BME280;32506;52.826;-1.192;2023-04-25T06:06:37;101182.75;;;1.53;46.60
46756;BME280;32506;52.826;-1.192;2023-04-25T06:09:02;101198.28;;;1.56;46.81
46756;BME280;32506;52.826;-1.192;2023-04-25T06:11:28;101194.56;;;1.59;46.71
46756;BME280;32506;52.826;-1.192;2023-04-25T06:13:53;101200.50;;;1.61;46.65
46756;BME280;32506;52.826;-1.192;2023-04-25T06:16:19;101202.03;;;1.63;46.37
46756;BME280;32506;52.826;-1.192;2023-04-25T06:18:44;101204.38;;;1.66;46.41
46756;BME280;32506;52.826;-1.192;2023-04-25T06:21:10;101206.75;;;1.70;47.13
46756;BME280;32506;52.826;-1.192;2023-04-25T06:23:35;101203.00;;;1.72;47.25
46756;BME280;32506;52.826;-1.192;2023-04-25T06:26:01;101207.19;;;1.75;47.28
46756;BME280;32506;52.826;-1.192;2023-04-25T06:28:26;101209.53;;;1.78;46.92
46756;BME280;32506;52.826;-1.192;2023-04-25T06:30:52;101212.72;;;1.81;46.92
46756;BME280;32506;52.826;-1.192;2023-04-25T06:33:17;101223.81;;;1.85;47.14
46756;BME280;32506;52.826;-1.192;2023-04-25T06:35:43;101226.19;;;1.88;47.39
46756;BME280;32506;52.826;-1.192;2023-04-25T06:38:08;101231.97;;;1.92;47.33
46756;BME280;32506;52.826;-1.192;2023-04-25T06:40:34;101227.28;;;1.95;46.94
46756;BME280;32506;52.826;-1.192;2023-04-25T06:42:59;101230.47;;;1.99;47.20
46756;BME280;32506;52.826;-1.192;2023-04-25T06:45:25;101226.56;;;2.03;47.40
46756;BME280;32506;52.826;-1.192;2023-04-25T06:47:50;101235.00;;;2.07;47.37
46756;BME280;32506;52.826;-1.192;2023-04-25T06:50:16;101234.75;;;2.10;47.40
46756;BME280;32506;52.826;-1.192;2023-04-25T06:52:41;101230.00;;;2.13;47.11
46756;BME280;32506;52.826;-1.192;2023-04-25T06:55:07;101240.97;;;2.18;47.50
46756;BME280;32506;52.826;-1.192;2023-04-25T06:57:33;101238.91;;;2.22;47.06
46756;BME280;32506;52.826;-1.192;2023-04-25T06:59:58;101230.53;;;2.27;47.18
46756;BME280;32506;52.826;-1.192;2023-04-25T07:02:23;101229.16;;;2.32;47.70
46756;BME280;32506;52.826;-1.192;2023-04-25T07:04:49;101233.19;;;2.37;47.39
46756;BME280;32506;52.826;-1.192;2023-04-25T07:07:15;101236.06;;;2.43;47.15
46756;BME280;32506;52.826;-1.192;2023-04-25T07:09:40;101233.13;;;2.46;47.51
46756;BME280;32506;52.826;-1.192;2023-04-25T07:12:06;101235.22;;;2.53;47.40
46756;BME280;32506;52.826;-1.192;2023-04-25T07:14:31;101243.50;;;2.58;47.57
46756;BME280;32506;52.826;-1.192;2023-04-25T07:16:57;101257.81;;;2.65;47.64
46756;BME280;32506;52.826;-1.192;2023-04-25T07:19:22;101244.16;;;2.69;48.45
46756;BME280;32506;52.826;-1.192;2023-04-25T07:21:51;101246.09;;;2.77;48.59
46756;BME280;32506;52.826;-1.192;2023-04-25T07:24:17;101251.63;;;2.84;48.61
46756;BME280;32506;52.826;-1.192;2023-04-25T07:26:42;101253.53;;;2.92;48.53
46756;BME280;32506;52.826;-1.192;2023-04-25T07:29:08;101256.28;;;3.00;49.49
46756;BME280;32506;52.826;-1.192;2023-04-25T07:31:34;101255.56;;;3.08;48.99
46756;BME280;32506;52.826;-1.192;2023-04-25T07:34:00;101252.03;;;3.17;49.34
46756;BME280;32506;52.826;-1.192;2023-04-25T07:36:26;101264.31;;;3.26;50.00
46756;BME280;32506;52.826;-1.192;2023-04-25T07:38:52;101255.50;;;3.35;49.72
46756;BME280;32506;52.826;-1.192;2023-04-25T07:41:18;101251.00;;;3.46;50.20
46756;BME280;32506;52.826;-1.192;2023-04-25T07:43:43;101256.22;;;3.56;50.10
46756;BME280;32506;52.826;-1.192;2023-04-25T07:46:09;101247.22;;;3.66;49.99
46756;BME280;32506;52.826;-1.192;2023-04-25T07:48:34;101259.28;;;3.79;50.52
46756;BME280;32506;52.826;-1.192;2023-04-25T07:51:00;101260.84;;;3.90;50.93
46756;BME280;32506;52.826;-1.192;2023-04-25T07:53:25;101265.88;;;4.01;51.01
46756;BME280;32506;52.826;-1.192;2023-04-25T07:55:51;101256.72;;;4.13;51.21
46756;BME280;32506;52.826;-1.192;2023-04-25T07:58:16;101263.28;;;4.27;51.75
46756;BME280;32506;52.826;-1.192;2023-04-25T08:00:46;101262.72;;;4.42;51.65
46756;BME280;32506;52.826;-1.192;2023-04-25T08:03:12;101273.59;;;4.57;51.92
46756;BME280;32506;52.826;-1.192;2023-04-25T08:05:37;101270.16;;;4.73;52.24
46756;BME280;32506;52.826;-1.192;2023-04-25T08:08:02;101275.75;;;4.87;52.57
46756;BME280;32506;52.826;-1.192;2023-04-25T08:10:28;101280.13;;;5.05;52.57
46756;BME280;32506;52.826;-1.192;2023-04-25T08:12:54;101281.16;;;5.20;52.87
46756;BME280;32506;52.826;-1.192;2023-04-25T08:15:19;101281.06;;;5.38;52.93
46756;BME280;32506;52.826;-1.192;2023-04-25T08:17:45;101287.91;;;5.58;53.44
46756;BME280;32506;52.826;-1.192;2023-04-25T08:20:11;101281.47;;;5.77;53.50
46756;BME280;32506;52.826;-1.192;2023-04-25T08:22:36;101281.03;;;5.98;53.37
46756;BME280;32506;52.826;-1.192;2023-04-25T08:25:02;101285.81;;;6.19;53.53
46756;BME280;32506;52.826;-1.192;2023-04-25T08:27:28;101296.78;;;6.41;53.42
46756;BME280;32506;52.826;-1.192;2023-04-25T08:29:53;101296.22;;;6.62;53.95
46756;BME280;32506;52.826;-1.192;2023-04-25T08:32:19;101294.69;;;6.84;53.89
46756;BME280;32506;52.826;-1.192;2023-04-25T08:34:45;101294.78;;;7.07;53.80
46756;BME280;32506;52.826;-1.192;2023-04-25T08:37:12;101302.81;;;7.30;53.66
46756;BME280;32506;52.826;-1.192;2023-04-25T08:39:37;101300.03;;;7.55;54.04
46756;BME280;32506;52.826;-1.192;2023-04-25T08:42:06;101294.75;;;7.78;53.76
46756;BME280;32506;52.826;-1.192;2023-04-25T08:44:35;101297.41;;;8.01;53.53
46756;BME280;32506;52.826;-1.192;2023-04-25T08:47:04;101302.06;;;8.22;52.88
46756;BME280;32506;52.826;-1.192;2023-04-25T08:49:34;101309.38;;;8.44;52.92
46756;BME280;32506;52.826;-1.192;2023-04-25T08:52:02;101310.72;;;8.63;53.10
46756;BME280;32506;52.826;-1.192;2023-04-25T08:54:30;101301.81;;;8.85;52.95
46756;BME280;32506;52.826;-1.192;2023-04-25T08:56:57;101303.56;;;9.08;52.84
46756;BME280;32506;52.826;-1.192;2023-04-25T08:59:24;101298.91;;;9.32;53.07
46756;BME280;32506;52.826;-1.192;2023-04-25T09:01:50;101302.28;;;9.55;52.71
46756;BME280;32506;52.826;-1.192;2023-04-25T09:04:17;101297.22;;;9.82;52.61
46756;BME280;32506;52.826;-1.192;2023-04-25T09:06:43;101293.16;;;10.08;52.70
46756;BME280;32506;52.826;-1.192;2023-04-25T09:09:08;101287.22;;;10.34;52.59
46756;BME280;32506;52.826;-1.192;2023-04-25T09:11:36;101289.06;;;10.62;52.50
46756;BME280;32506;52.826;-1.192;2023-04-25T09:19:22;101294.22;;;11.47;52.07
46756;BME280;32506;52.826;-1.192;2023-04-25T09:21:53;101291.19;;;11.77;52.13
46756;BME280;32506;52.826;-1.192;2023-04-25T09:26:57;101294.97;;;12.36;51.04
46756;BME280;32506;52.826;-1.192;2023-04-25T09:29:31;101291.84;;;12.66;50.78
46756;BME280;32506;52.826;-1.192;2023-04-25T09:32:20;101289.91;;;13.00;50.57
46756;BME280;32506;52.826;-1.192;2023-04-25T09:34:48;101285.47;;;13.26;50.08
46756;BME280;32506;52.826;-1.192;2023-04-25T09:37:19;101288.66;;;13.55;49.94
46756;BME280;32506;52.826;-1.192;2023-04-25T09:39:49;101292.00;;;13.82;49.49
46756;BME280;32506;52.826;-1.192;2023-04-25T09:42:15;101287.47;;;14.08;49.00
46756;BME280;32506;52.826;-1.192;2023-04-25T09:44:45;101292.88;;;14.33;48.66
46756;BME280;32506;52.826;-1.192;2023-04-25T09:47:15;101286.63;;;14.58;48.64
46756;BME280;32506;52.826;-1.192;2023-04-25T09:49:43;101289.75;;;14.80;48.14
46756;BME280;32506;52.826;-1.192;2023-04-25T09:52:13;101283.06;;;15.01;48.01
46756;BME280;32506;52.826;-1.192;2023-04-25T09:54:40;101282.03;;;15.21;47.12
46756;BME280;32506;52.826;-1.192;2023-04-25T09:57:25;101283.75;;;15.46;47.06
46756;BME280;32506;52.826;-1.192;2023-04-25T09:59:54;101288.28;;;15.64;46.76
46756;BME280;32506;52.826;-1.192;2023-04-25T10:02:26;101284.06;;;15.86;46.39
46756;BME280;32506;52.826;-1.192;2023-04-25T10:04:54;101285.59;;;16.06;46.07
46756;BME280;32506;52.826;-1.192;2023-04-25T10:07:22;101281.53;;;16.27;46.14
46756;BME280;32506;52.826;-1.192;2023-04-25T10:09:57;101284.47;;;16.49;45.51
46756;BME280;32506;52.826;-1.192;2023-04-25T10:12:24;101282.22;;;16.70;45.87
46756;BME280;32506;52.826;-1.192;2023-04-25T10:14:52;101285.38;;;16.90;45.71
46756;BME280;32506;52.826;-1.192;2023-04-25T10:17:19;101283.13;;;17.11;45.52
46756;BME280;32506;52.826;-1.192;2023-04-25T10:19:49;101278.91;;;17.32;45.09
46756;BME280;32506;52.826;-1.192;2023-04-25T10:22:18;101285.03;;;17.56;45.26
46756;BME280;32506;52.826;-1.192;2023-04-25T10:24:46;101281.41;;;17.80;45.19
46756;BME280;32506;52.826;-1.192;2023-04-25T10:27:12;101283.16;;;18.03;44.53
46756;BME280;32506;52.826;-1.192;2023-04-25T10:29:37;101274.31;;;18.24;43.88
46756;BME280;32506;52.826;-1.192;2023-04-25T10:32:03;101275.44;;;18.45;42.91
46756;BME280;32506;52.826;-1.192;2023-04-25T10:34:43;101277.69;;;18.71;43.27
46756;BME280;32506;52.826;-1.192;2023-04-25T10:37:09;101278.38;;;18.83;35.60
46756;BME280;32506;52.826;-1.192;2023-04-25T10:39:40;101281.78;;;18.73;33.36
46756;BME280;32506;52.826;-1.192;2023-04-25T10:42:06;101284.34;;;18.46;33.19
46756;BME280;32506;52.826;-1.192;2023-04-25T10:44:33;101285.53;;;18.16;32.01
46756;BME280;32506;52.826;-1.192;2023-04-25T10:47:01;101293.13;;;17.85;30.81
46756;BME280;32506;52.826;-1.192;2023-04-25T10:49:37;101291.97;;;17.52;30.91
46756;BME280;32506;52.826;-1.192;2023-04-25T10:55:02;101290.63;;;16.97;28.28
46756;BME280;32506;52.826;-1.192;2023-04-25T10:57:40;101289.38;;;16.76;30.90
46756;BME280;32506;52.826;-1.192;2023-04-25T11:00:07;101285.53;;;16.60;30.38
46756;BME280;32506;52.826;-1.192;2023-04-25T11:02:52;101287.63;;;16.46;30.92
46756;BME280;32506;52.826;-1.192;2023-04-25T11:05:34;101285.41;;;16.31;29.24
46756;BME280;32506;52.826;-1.192;2023-04-25T11:08:01;101282.00;;;16.24;32.15
46756;BME280;32506;52.826;-1.192;2023-04-25T11:10:30;101281.41;;;16.22;31.71
46756;BME280;32506;52.826;-1.192;2023-04-25T11:12:57;101270.59;;;16.22;32.34
46756;BME280;32506;52.826;-1.192;2023-04-25T11:15:23;101279.88;;;16.26;32.85
46756;BME280;32506;52.826;-1.192;2023-04-25T11:17:51;101267.34;;;16.32;29.63
46756;BME280;32506;52.826;-1.192;2023-04-25T11:20:16;101269.81;;;16.33;30.77
46756;BME280;32506;52.826;-1.192;2023-04-25T11:22:44;101271.09;;;16.31;29.88
46756;BME280;32506;52.826;-1.192;2023-04-25T11:25:11;101278.13;;;16.32;31.40
46756;BME280;32506;52.826;-1.192;2023-04-25T11:27:58;101279.53;;;16.34;27.88
46756;BME280;32506;52.826;-1.192;2023-04-25T11:30:25;101270.25;;;16.30;29.89
46756;BME280;32506;52.826;-1.192;2023-04-25T11:32:52;101263.25;;;16.29;29.36
46756;BME280;32506;52.826;-1.192;2023-04-25T11:35:19;101257.84;;;16.29;30.47
46756;BME280;32506;52.826;-1.192;2023-04-25T11:37:45;101260.31;;;16.31;30.73
46756;BME280;32506;52.826;-1.192;2023-04-25T11:40:11;101261.25;;;16.36;30.49
46756;BME280;32506;52.826;-1.192;2023-04-25T11:42:47;101261.34;;;16.41;30.24
46756;BME280;32506;52.826;-1.192;2023-04-25T11:45:13;101260.44;;;16.36;29.31
46756;BME280;32506;52.826;-1.192;2023-04-25T11:47:39;101254.69;;;16.32;27.87
46756;BME280;32506;52.826;-1.192;2023-04-25T11:50:08;101255.16;;;16.29;27.07
46756;BME280;32506;52.826;-1.192;2023-04-25T11:52:42;101258.09;;;16.27;29.49
46756;BME280;32506;52.826;-1.192;2023-04-25T11:55:10;101251.16;;;16.32;29.37
46756;BME280;32506;52.826;-1.192;2023-04-25T11:57:39;101249.16;;;16.39;28.18
46756;BME280;32506;52.826;-1.192;2023-04-25T12:00:10;101239.41;;;16.50;28.48
46756;BME280;32506;52.826;-1.192;2023-04-25T12:02:36;101244.69;;;16.56;28.85
46756;BME280;32506;52.826;-1.192;2023-04-25T12:05:02;101258.66;;;16.65;29.96
46756;BME280;32506;52.826;-1.192;2023-04-25T12:07:31;101256.16;;;16.75;28.00
46756;BME280;32506;52.826;-1.192;2023-04-25T12:09:56;101255.22;;;16.82;29.14
46756;BME280;32506;52.826;-1.192;2023-04-25T12:12:27;101249.22;;;16.91;28.67
46756;BME280;32506;52.826;-1.192;2023-04-25T12:14:52;101250.50;;;17.01;28.16
46756;BME280;32506;52.826;-1.192;2023-04-25T12:17:20;101255.88;;;17.13;28.26
46756;BME280;32506;52.826;-1.192;2023-04-25T12:19:46;101252.03;;;17.25;28.41
46756;BME280;32506;52.826;-1.192;2023-04-25T12:22:23;101247.66;;;17.36;25.70
46756;BME280;32506;52.826;-1.192;2023-04-25T12:24:50;101250.44;;;17.41;26.90
46756;BME280;32506;52.826;-1.192;2023-04-25T12:27:16;101258.41;;;17.48;27.82
46756;BME280;32506;52.826;-1.192;2023-04-25T12:29:51;101256.69;;;17.59;27.27
46756;BME280;32506;52.826;-1.192;2023-04-25T12:32:17;101256.78;;;17.64;25.19
46756;BME280;32506;52.826;-1.192;2023-04-25T12:34:42;101254.69;;;17.66;24.87
46756;BME280;32506;52.826;-1.192;2023-04-25T12:37:08;101253.84;;;17.66;24.20
46756;BME280;32506;52.826;-1.192;2023-04-25T12:39:34;101250.84;;;17.62;24.99
46756;BME280;32506;52.826;-1.192;2023-04-25T12:42:00;101264.09;;;17.64;27.31
46756;BME280;32506;52.826;-1.192;2023-04-25T12:44:26;101253.94;;;17.71;27.80
46756;BME280;32506;52.826;-1.192;2023-04-25T12:46:52;101255.44;;;17.78;23.95
46756;BME280;32506;52.826;-1.192;2023-04-25T12:49:18;101258.47;;;17.82;25.85
46756;BME280;32506;52.826;-1.192;2023-04-25T12:51:43;101250.66;;;17.86;27.23
46756;BME280;32506;52.826;-1.192;2023-04-25T12:54:09;101248.66;;;17.93;26.36
46756;BME280;32506;52.826;-1.192;2023-04-25T12:56:35;101247.19;;;18.02;26.07